Time;durP1;ratioP1;P1;durP2;ratioP2;P2;SDS_P1;SDS_P2;PMS_P1;PMS_P2;Temp;Humidity;BMP_temperature;BMP_pressure;BME280_temperature;BME280_humidity;BME280_pressure;Samples;Min_cycle;Max_cycle;Signal;HPM_P1;HPM_P2
2021/07/03 00:02:00;;;;;;;;;;;;;;;24.91;43.41;101771.03;4973816;28;19933;-87
2021/07/03 00:04:41;;;;;;;;;;;;;;;24.84;44.02;101760.69;5163784;23;19926;-86
2021/07/03 00:07:07;;;;;;;;;;;;;;;24.69;43.84;101757.44;4992491;28;19918;-88
2021/07/03 00:09:34;;;;;;;;;;;;;;;24.86;43.55;101753.09;4992925;28;19918;-88
2021/07/03 00:12:02;;;;;;;;;;;;;;;24.95;43.31;101752.22;4994047;23;19926;-91
2021/07/03 00:14:28;;;;;;;;;;;;;;;24.86;43.90;101742.03;4956736;29;20381;-85
2021/07/03 00:16:54;;;;;;;;;;;;;;;24.73;44.36;101751.50;4972747;28;19930;-84
2021/07/03 00:19:19;;;;;;;;;;;;;;;24.39;45.46;101748.19;4972099;28;20410;-83
2021/07/03 00:21:45;;;;;;;;;;;;;;;24.48;44.82;101744.56;4972681;29;19942;-85
2021/07/03 00:24:11;;;;;;;;;;;;;;;24.01;45.88;101747.03;4973320;28;19910;-88
2021/07/03 00:26:36;;;;;;;;;;;;;;;23.87;46.47;101737.25;4974573;29;19925;-89
2021/07/03 00:29:07;;;;;;;;;;;;;;;24.20;45.33;101737.94;4990331;28;19926;-84
2021/07/03 00:31:32;;;;;;;;;;;;;;;24.00;45.83;101740.63;4990452;28;19919;-87
2021/07/03 00:33:57;;;;;;;;;;;;;;;23.77;46.58;101744.56;4987850;28;19918;-87
2021/07/03 00:36:29;;;;;;;;;;;;;;;23.86;46.39;101739.09;4990558;28;19923;-85
2021/07/03 00:38:55;;;;;;;;;;;;;;;24.25;45.21;101738.41;4975680;28;19919;-85
2021/07/03 00:41:21;;;;;;;;;;;;;;;24.77;43.67;101732.69;4957531;29;19922;-86
2021/07/03 00:46:21;;;;;;;;;;;;;;;24.30;45.04;101738.84;4993618;23;19938;-85
2021/07/03 00:48:50;;;;;;;;;;;;;;;24.47;44.41;101739.16;4994157;28;19963;-91
2021/07/03 00:51:15;;;;;;;;;;;;;;;24.64;43.87;101737.63;4994548;28;19925;-88
2021/07/03 00:53:44;;;;;;;;;;;;;;;24.73;43.95;101743.19;4992854;28;20449;-86
2021/07/03 00:56:09;;;;;;;;;;;;;;;24.66;43.74;101735.59;4975287;28;19993;-87
2021/07/03 00:58:35;;;;;;;;;;;;;;;24.64;43.83;101732.09;4991574;28;19918;-86
2021/07/03 01:01:00;;;;;;;;;;;;;;;24.77;43.82;101732.69;5009130;28;19918;-90
2021/07/03 01:03:25;;;;;;;;;;;;;;;24.73;44.00;101729.34;4992173;28;19918;-89
2021/07/03 01:05:52;;;;;;;;;;;;;;;24.90;43.38;101740.72;4991202;28;20013;-84
2021/07/03 01:08:18;;;;;;;;;;;;;;;24.18;45.54;101740.84;4990271;28;19945;-86
2021/07/03 01:10:43;;;;;;;;;;;;;;;24.56;44.21;101736.44;4991558;28;19918;-85
2021/07/03 01:13:11;;;;;;;;;;;;;;;24.68;43.93;101736.31;4991553;28;19925;-87
2021/07/03 01:15:37;;;;;;;;;;;;;;;24.62;44.30;101737.78;4991584;28;19933;-85
2021/07/03 01:18:09;;;;;;;;;;;;;;;24.73;43.96;101742.28;4992369;28;19902;-85
2021/07/03 01:20:34;;;;;;;;;;;;;;;24.44;44.75;101743.09;4991124;28;19918;-88
2021/07/03 01:23:02;;;;;;;;;;;;;;;24.44;45.20;101742.22;4991351;28;19942;-88
2021/07/03 01:25:29;;;;;;;;;;;;;;;24.73;43.89;101743.19;4990761;28;19918;-83
2021/07/03 01:28:02;;;;;;;;;;;;;;;24.86;43.95;101734.59;4988433;28;19940;-87
2021/07/03 01:30:32;;;;;;;;;;;;;;;24.58;44.52;101731.66;4981348;28;19924;-83
2021/07/03 01:32:57;;;;;;;;;;;;;;;24.73;44.05;101732.13;4986549;28;19918;-86
2021/07/03 01:35:28;;;;;;;;;;;;;;;24.89;43.50;101725.13;4989591;28;19929;-92
2021/07/03 01:37:55;;;;;;;;;;;;;;;24.40;44.92;101723.16;4990167;28;19918;-89
2021/07/03 01:40:20;;;;;;;;;;;;;;;24.77;44.11;101716.97;4989420;28;19925;-87
2021/07/03 01:42:46;;;;;;;;;;;;;;;25.06;43.05;101724.41;4988474;28;19918;-86
2021/07/03 01:45:11;;;;;;;;;;;;;;;24.59;43.91;101722.34;4988479;28;20000;-85
2021/07/03 01:47:44;;;;;;;;;;;;;;;24.62;44.37;101718.41;4986994;28;20403;-86
2021/07/03 01:50:09;;;;;;;;;;;;;;;24.48;44.74;101718.81;4987342;28;19925;-85
2021/07/03 01:52:37;;;;;;;;;;;;;;;24.56;44.57;101711.53;5004078;28;19918;-86
2021/07/03 01:55:03;;;;;;;;;;;;;;;24.05;46.24;101713.44;4988039;28;19954;-87
2021/07/03 01:57:28;;;;;;;;;;;;;;;24.34;45.76;101714.56;4989337;28;19918;-84
2021/07/03 01:59:53;;;;;;;;;;;;;;;24.45;45.59;101714.41;4988872;28;19933;-86
2021/07/03 02:02:21;;;;;;;;;;;;;;;24.74;44.60;101705.31;4987026;28;19918;-87
2021/07/03 02:04:47;;;;;;;;;;;;;;;24.49;44.94;101704.81;4986496;28;19925;-86
2021/07/03 02:07:12;;;;;;;;;;;;;;;24.44;45.59;101696.06;4988023;28;19922;-85
2021/07/03 02:09:37;;;;;;;;;;;;;;;24.16;46.61;101695.00;4987388;28;19918;-84
2021/07/03 02:12:05;;;;;;;;;;;;;;;24.50;45.89;101686.31;4987451;28;19918;-87
2021/07/03 02:14:30;;;;;;;;;;;;;;;24.48;46.21;101696.66;4987385;28;19918;-83
2021/07/03 02:16:55;;;;;;;;;;;;;;;24.51;46.09;101685.31;4987285;28;19965;-87
2021/07/03 02:19:21;;;;;;;;;;;;;;;24.43;46.31;101674.97;4987946;28;19956;-88
2021/07/03 02:21:47;;;;;;;;;;;;;;;24.44;46.76;101675.84;5005981;28;19950;-85
2021/07/03 02:24:12;;;;;;;;;;;;;;;25.02;44.86;101680.56;4991003;28;19933;-85
2021/07/03 02:26:37;;;;;;;;;;;;;;;24.74;46.03;101678.53;4990640;28;19957;-87
2021/07/03 02:29:03;;;;;;;;;;;;;;;24.78;45.82;101676.34;4989743;28;19918;-84
2021/07/03 02:31:28;;;;;;;;;;;;;;;24.87;45.65;101671.81;4990274;28;19918;-88
2021/07/03 02:33:54;;;;;;;;;;;;;;;24.84;45.86;101674.88;4990253;28;19918;-88
2021/07/03 02:36:19;;;;;;;;;;;;;;;25.01;45.22;101667.72;4989439;28;20000;-89
2021/07/03 02:38:44;;;;;;;;;;;;;;;25.10;44.89;101667.69;4990038;28;19918;-88
2021/07/03 02:41:09;;;;;;;;;;;;;;;25.00;45.52;101671.50;4990014;28;19941;-87
2021/07/03 02:43:35;;;;;;;;;;;;;;;24.90;45.87;101671.53;4990046;28;20368;-87
2021/07/03 02:46:00;;;;;;;;;;;;;;;24.83;46.24;101675.88;4990452;28;19933;-86
2021/07/03 02:48:25;;;;;;;;;;;;;;;25.08;45.37;101671.66;4972967;28;19958;-85
2021/07/03 02:50:50;;;;;;;;;;;;;;;25.24;45.01;101669.16;4986329;28;19953;-88
2021/07/03 02:53:16;;;;;;;;;;;;;;;25.19;45.15;101678.91;4987231;28;19918;-87
2021/07/03 02:55:41;;;;;;;;;;;;;;;25.32;44.31;101670.31;4988353;28;19950;-88
2021/07/03 02:58:07;;;;;;;;;;;;;;;25.28;44.04;101658.63;4988350;28;19925;-88
2021/07/03 03:00:32;;;;;;;;;;;;;;;25.36;43.50;101663.44;4991360;28;19973;-87
2021/07/03 03:02:57;;;;;;;;;;;;;;;25.43;43.37;101661.81;4989513;28;19918;-88
2021/07/03 03:05:23;;;;;;;;;;;;;;;25.13;44.28;101656.31;4988498;28;19918;-89
2021/07/03 03:07:48;;;;;;;;;;;;;;;24.83;45.16;101664.81;4971078;28;19969;-90
2021/07/03 03:10:15;;;;;;;;;;;;;;;24.88;45.10;101662.47;4989926;28;19941;-89
2021/07/03 03:12:41;;;;;;;;;;;;;;;24.59;45.79;101660.59;4989302;28;19949;-87
2021/07/03 03:15:07;;;;;;;;;;;;;;;24.64;45.59;101662.91;4986794;28;19937;-84
2021/07/03 03:17:35;;;;;;;;;;;;;;;24.82;44.97;101663.06;5004140;28;19926;-87
2021/07/03 03:20:01;;;;;;;;;;;;;;;24.77;45.29;101656.09;4983902;28;20315;-83
2021/07/03 03:22:26;;;;;;;;;;;;;;;24.82;44.79;101654.75;4985898;28;19918;-86
2021/07/03 03:24:51;;;;;;;;;;;;;;;24.80;45.40;101651.28;4988371;28;19921;-88
2021/07/03 03:27:17;;;;;;;;;;;;;;;24.96;44.58;101646.03;4988754;28;19919;-87
2021/07/03 03:29:42;;;;;;;;;;;;;;;24.71;45.73;101661.31;4985235;28;19984;-86
2021/07/03 03:32:07;;;;;;;;;;;;;;;24.74;45.59;101649.97;4989416;28;19918;-89
2021/07/03 03:34:34;;;;;;;;;;;;;;;24.82;45.27;101647.34;4990931;28;19956;-84
2021/07/03 03:36:59;;;;;;;;;;;;;;;25.00;44.56;101650.25;4988774;28;19918;-89
2021/07/03 03:39:24;;;;;;;;;;;;;;;24.59;45.85;101646.75;4970037;28;19929;-89
2021/07/03 03:41:49;;;;;;;;;;;;;;;24.67;45.80;101649.69;4982276;28;19925;-88
2021/07/03 03:44:16;;;;;;;;;;;;;;;24.82;45.52;101654.75;4984446;28;19933;-87
2021/07/03 03:46:41;;;;;;;;;;;;;;;24.85;45.05;101660.00;4982918;28;19927;-87
2021/07/03 03:49:06;;;;;;;;;;;;;;;24.77;45.46;101656.09;4983903;28;19925;-87
2021/07/03 03:51:31;;;;;;;;;;;;;;;24.91;45.40;101651.09;4987580;28;20005;-86
2021/07/03 03:53:57;;;;;;;;;;;;;;;24.81;45.87;101645.59;4986487;28;19925;-88
2021/07/03 03:56:23;;;;;;;;;;;;;;;24.83;45.74;101646.31;4987066;28;19918;-90
2021/07/03 03:59:02;;;;;;;;;;;;;;;24.81;45.94;101648.38;4987451;28;19925;-86
2021/07/03 04:01:27;;;;;;;;;;;;;;;24.63;46.14;101648.22;4988060;28;19926;-88
2021/07/03 04:03:54;;;;;;;;;;;;;;;24.30;47.07;101658.63;4987191;28;19918;-87
2021/07/03 04:06:23;;;;;;;;;;;;;;;24.58;46.10;101647.78;4988396;28;19925;-88
2021/07/03 04:08:50;;;;;;;;;;;;;;;25.03;44.98;101654.59;4988641;28;19965;-86
2021/07/03 04:11:15;;;;;;;;;;;;;;;25.16;44.50;101654.28;4987198;28;19918;-86
2021/07/03 04:13:43;;;;;;;;;;;;;;;25.08;45.04;101646.72;4988021;28;19918;-88
2021/07/03 04:16:10;;;;;;;;;;;;;;;25.09;44.97;101654.88;4971007;28;19926;-88
2021/07/03 04:18:35;;;;;;;;;;;;;;;24.98;44.75;101652.28;4987002;28;19925;-89
2021/07/03 04:21:00;;;;;;;;;;;;;;;25.15;44.81;101645.09;4985923;28;20543;-86
2021/07/03 04:23:25;;;;;;;;;;;;;;;25.26;44.52;101644.06;4986310;28;19965;-86
2021/07/03 04:25:53;;;;;;;;;;;;;;;25.12;45.16;101643.50;4988060;28;20017;-89
2021/07/03 04:28:18;;;;;;;;;;;;;;;25.20;44.83;101639.09;4987482;28;19922;-87
2021/07/03 04:30:44;;;;;;;;;;;;;;;25.23;45.31;101631.38;4986162;28;19926;-89
2021/07/03 04:33:09;;;;;;;;;;;;;;;24.54;47.52;101638.88;4987950;28;19922;-89
2021/07/03 04:35:34;;;;;;;;;;;;;;;25.36;45.39;101639.38;4986040;28;19922;-86
2021/07/03 04:38:00;;;;;;;;;;;;;;;24.99;46.76;101647.63;4985862;28;20454;-88
2021/07/03 04:40:25;;;;;;;;;;;;;;;24.64;47.90;101644.44;4985606;28;19949;-87
2021/07/03 04:42:51;;;;;;;;;;;;;;;24.94;47.34;101639.72;4985956;28;19980;-90
2021/07/03 04:45:16;;;;;;;;;;;;;;;25.31;45.88;101638.97;4985182;28;19933;-85
2021/07/03 04:47:42;;;;;;;;;;;;;;;25.46;45.77;101634.69;4985120;28;19922;-84
2021/07/03 04:50:09;;;;;;;;;;;;;;;25.51;45.64;101630.59;4969541;28;20013;-85
2021/07/03 04:52:36;;;;;;;;;;;;;;;25.91;44.31;101632.16;4985886;28;19925;-87
2021/07/03 04:55:02;;;;;;;;;;;;;;;26.39;43.23;101635.66;4986175;28;19918;-83
2021/07/03 04:57:27;;;;;;;;;;;;;;;25.94;44.34;101626.31;4987299;28;19925;-87
2021/07/03 04:59:52;;;;;;;;;;;;;;;25.70;45.31;101630.50;4985234;28;19925;-87
2021/07/03 05:02:17;;;;;;;;;;;;;;;26.32;43.79;101627.97;4985964;28;19993;-85
2021/07/03 05:04:43;;;;;;;;;;;;;;;26.62;43.19;101636.06;4984847;28;19928;-85
2021/07/03 05:07:08;;;;;;;;;;;;;;;26.90;42.76;101633.19;4986092;28;19918;-91
2021/07/03 05:09:34;;;;;;;;;;;;;;;27.21;42.23;101622.50;4985826;28;19919;-89
2021/07/03 05:11:59;;;;;;;;;;;;;;;26.76;42.83;101621.63;4987211;28;20001;-87
2021/07/03 05:14:30;;;;;;;;;;;;;;;27.40;41.21;101622.31;4986741;28;19997;-87
2021/07/03 05:16:58;;;;;;;;;;;;;;;27.96;40.20;101624.66;4986180;28;20399;-87
2021/07/03 05:19:23;;;;;;;;;;;;;;;27.05;42.28;101620.47;4970761;28;19922;-86
2021/07/03 05:21:49;;;;;;;;;;;;;;;27.39;41.56;101615.00;4987605;28;19919;-84
2021/07/03 05:24:14;;;;;;;;;;;;;;;26.68;43.28;101616.03;4984883;28;19919;-87
2021/07/03 05:26:40;;;;;;;;;;;;;;;27.40;41.56;101618.63;4986910;28;19930;-85
2021/07/03 05:29:05;;;;;;;;;;;;;;;27.43;41.41;101621.06;4985751;28;20057;-87
2021/07/03 05:31:31;;;;;;;;;;;;;;;26.88;42.65;101630.59;4985894;28;19922;-89
2021/07/03 05:33:56;;;;;;;;;;;;;;;27.28;41.61;101633.81;4968926;28;20284;-88
2021/07/03 05:36:28;;;;;;;;;;;;;;;26.65;43.15;101630.19;4987048;28;20384;-89
2021/07/03 05:38:53;;;;;;;;;;;;;;;26.30;45.09;101620.81;4985404;28;20457;-85
2021/07/03 05:41:26;;;;;;;;;;;;;;;26.98;43.23;101619.38;4969553;28;19918;-89
2021/07/03 05:43:52;;;;;;;;;;;;;;;26.95;43.00;101619.69;5208012;23;19930;-86
2021/07/03 05:46:19;;;;;;;;;;;;;;;26.59;44.18;101619.72;4967448;29;19946;-93
2021/07/03 05:48:44;;;;;;;;;;;;;;;26.71;43.67;101618.47;4967066;29;19995;-87
2021/07/03 05:51:10;;;;;;;;;;;;;;;26.93;43.39;101619.84;4982782;28;19914;-93
2021/07/03 05:53:36;;;;;;;;;;;;;;;26.61;44.17;101612.09;4966282;29;19985;-91
2021/07/03 05:56:01;;;;;;;;;;;;;;;27.90;41.24;101614.16;4965716;29;19925;-86
2021/07/03 05:58:26;;;;;;;;;;;;;;;27.29;42.10;101610.56;4983481;28;19970;-88
2021/07/03 06:00:52;;;;;;;;;;;;;;;27.34;41.98;101614.63;4967566;29;19918;-89
2021/07/03 06:03:22;;;;;;;;;;;;;;;26.57;44.35;101619.88;4951323;29;19922;-86
2021/07/03 06:05:47;;;;;;;;;;;;;;;26.92;43.37;101608.91;4967674;29;19943;-85
2021/07/03 06:08:16;;;;;;;;;;;;;;;27.75;41.82;101609.25;4968343;28;19987;-87
2021/07/03 06:10:41;;;;;;;;;;;;;;;27.02;42.24;101612.47;4982406;28;20361;-88
2021/07/03 06:13:07;;;;;;;;;;;;;;;27.20;42.46;101607.72;4966619;29;20002;-88
2021/07/03 06:15:34;;;;;;;;;;;;;;;27.69;41.35;101609.03;4965860;29;19929;-86
2021/07/03 06:18:00;;;;;;;;;;;;;;;26.35;43.49;101605.44;4969518;28;20018;-89
2021/07/03 06:20:28;;;;;;;;;;;;;;;26.21;44.40;101610.66;4971559;28;19918;-88
2021/07/03 06:22:53;;;;;;;;;;;;;;;26.09;45.42;101604.47;4986169;28;19918;-86
2021/07/03 06:25:22;;;;;;;;;;;;;;;26.68;42.83;101602.16;4970826;29;19919;-88
2021/07/03 06:27:47;;;;;;;;;;;;;;;26.71;43.39;101601.81;4985733;28;20007;-88
2021/07/03 06:30:12;;;;;;;;;;;;;;;26.52;43.45;101606.47;4967978;29;19919;-87
2021/07/03 06:32:38;;;;;;;;;;;;;;;26.72;43.55;101598.00;4965001;29;19976;-85
2021/07/03 06:35:04;;;;;;;;;;;;;;;26.99;42.35;101605.31;4980545;28;19965;-85
2021/07/03 06:37:29;;;;;;;;;;;;;;;27.15;42.32;101603.72;4970237;29;19918;-87
2021/07/03 06:39:54;;;;;;;;;;;;;;;27.86;41.26;101607.22;4970780;29;19918;-88
2021/07/03 06:42:24;;;;;;;;;;;;;;;26.38;43.40;101607.03;4971102;28;19922;-90
2021/07/03 06:44:50;;;;;;;;;;;;;;;26.80;43.48;101603.63;4969376;29;19919;-88
2021/07/03 06:47:15;;;;;;;;;;;;;;;27.16;42.71;101600.75;4969324;29;19926;-88
2021/07/03 06:49:41;;;;;;;;;;;;;;;28.20;40.44;101593.25;4969845;29;19923;-88
2021/07/03 06:52:07;;;;;;;;;;;;;;;28.31;40.25;101605.06;4969989;29;20336;-88
2021/07/03 06:54:51;;;;;;;;;;;;;;;27.09;42.15;101601.59;4986357;28;19934;-86
2021/07/03 06:57:19;;;;;;;;;;;;;;;26.44;43.96;101603.63;4986135;28;19929;-89
2021/07/03 06:59:45;;;;;;;;;;;;;;;27.08;42.47;101599.84;4970654;29;19958;-89
2021/07/03 07:02:10;;;;;;;;;;;;;;;27.27;42.29;101601.53;4970580;29;19925;-87
2021/07/03 07:04:53;;;;;;;;;;;;;;;28.05;40.85;101598.63;4986693;28;19907;-91
2021/07/03 07:07:35;;;;;;;;;;;;;;;;;;;;;
2021/07/03 07:10:04;;;;;;;;;;;;;;;27.09;43.47;101598.81;4964037;28;19945;-87
2021/07/03 07:12:30;;;;;;;;;;;;;;;28.56;39.80;101592.94;4970391;28;19925;-87
2021/07/03 07:14:58;;;;;;;;;;;;;;;27.45;42.70;101594.00;4972330;28;19919;-90
2021/07/03 07:17:26;;;;;;;;;;;;;;;28.39;40.40;101591.19;4987670;28;19969;-90
2021/07/03 07:19:52;;;;;;;;;;;;;;;28.16;40.13;101591.84;4970889;28;19973;-91
2021/07/03 07:22:17;;;;;;;;;;;;;;;28.24;40.32;101594.63;4986248;28;19918;-85
2021/07/03 07:24:47;;;;;;;;;;;;;;;28.93;38.96;101588.78;4970084;29;19951;-88
2021/07/03 07:27:12;;;;;;;;;;;;;;;29.04;38.93;101595.88;4984670;28;20025;-88
2021/07/03 07:29:37;;;;;;;;;;;;;;;28.81;39.06;101584.63;4983652;28;19914;-88
2021/07/03 07:32:02;;;;;;;;;;;;;;;29.43;38.28;101585.91;4966132;29;19918;-85
2021/07/03 07:34:28;;;;;;;;;;;;;;;29.14;38.33;101581.78;4964474;29;19936;-89
2021/07/03 07:36:53;;;;;;;;;;;;;;;29.86;37.42;101578.06;4982576;28;19962;-88
2021/07/03 07:41:58;;;;;;;;;;;;;;;;;;;;;
2021/07/03 07:44:26;;;;;;;;;;;;;;;28.54;38.66;101588.59;4987996;28;19981;-86
2021/07/03 07:47:04;;;;;;;;;;;;;;;28.19;38.37;101585.09;4987489;28;19929;-90
2021/07/03 07:49:37;;;;;;;;;;;;;;;28.16;39.44;101579.84;4988851;28;19945;-90
2021/07/03 07:52:03;;;;;;;;;;;;;;;29.73;36.76;101584.22;4987645;28;19949;-89
2021/07/03 07:54:31;;;;;;;;;;;;;;;29.34;37.48;101576.69;4969003;28;19922;-84
2021/07/03 07:56:59;;;;;;;;;;;;;;;29.22;36.36;101583.72;4986345;28;20383;-86
2021/07/03 07:59:25;;;;;;;;;;;;;;;30.09;35.53;101566.06;4987125;28;19973;-85
2021/07/03 08:01:53;;;;;;;;;;;;;;;30.15;35.12;101576.47;4987302;28;20411;-88
2021/07/03 08:04:21;;;;;;;;;;;;;;;29.30;36.21;101565.03;4989555;28;19920;-91
2021/07/03 08:06:48;;;;;;;;;;;;;;;30.31;34.70;101565.19;5025446;23;20315;-90
2021/07/03 08:09:13;;;;;;;;;;;;;;;29.46;35.94;101564.09;4969151;29;20292;-87
2021/07/03 08:11:43;;;;;;;;;;;;;;;29.69;35.86;101560.50;4968626;29;19918;-89
2021/07/03 08:14:11;;;;;;;;;;;;;;;29.81;36.00;101563.81;4969346;29;19958;-89
2021/07/03 08:16:38;;;;;;;;;;;;;;;30.43;34.55;101562.88;4968751;29;19943;-89
2021/07/03 08:19:04;;;;;;;;;;;;;;;29.82;34.76;101557.19;4953059;29;19950;-88
2021/07/03 08:21:32;;;;;;;;;;;;;;;31.32;33.59;101552.94;4968023;29;19982;-86
2021/07/03 08:24:00;;;;;;;;;;;;;;;29.14;36.27;101559.50;4966088;29;19922;-86
2021/07/03 08:26:25;;;;;;;;;;;;;;;29.05;37.01;101557.75;4966721;29;19954;-87
2021/07/03 08:28:52;;;;;;;;;;;;;;;29.89;35.39;101555.38;4966709;29;19965;-85
2021/07/03 08:31:17;;;;;;;;;;;;;;;30.18;35.06;101556.56;4967816;29;19922;-87
2021/07/03 08:33:42;;;;;;;;;;;;;;;30.27;35.25;101557.38;4965967;29;20413;-83
2021/07/03 08:36:09;;;;;;;;;;;;;;;30.09;35.14;101560.47;4965297;29;20366;-82
2021/07/03 08:38:34;;;;;;;;;;;;;;;29.02;36.81;101547.84;4965401;29;19923;-85
2021/07/03 08:40:59;;;;;;;;;;;;;;;28.91;36.85;101554.66;4966159;28;20008;-87
2021/07/03 08:43:25;;;;;;;;;;;;;;;29.75;35.93;101547.78;4965198;29;19925;-88
2021/07/03 08:45:57;;;;;;;;;;;;;;;30.10;35.68;101551.06;4967429;29;19926;-87
2021/07/03 08:48:22;;;;;;;;;;;;;;;29.84;36.27;101552.28;4965487;29;20021;-82
2021/07/03 08:50:48;;;;;;;;;;;;;;;29.33;36.41;101545.19;4965307;29;19919;-87
2021/07/03 08:53:13;;;;;;;;;;;;;;;29.21;36.83;101551.31;4966247;29;19921;-86
2021/07/03 08:55:39;;;;;;;;;;;;;;;29.47;35.53;101549.13;4965139;29;19958;-87
2021/07/03 08:58:05;;;;;;;;;;;;;;;30.14;34.81;101544.06;4965440;29;19918;-84
2021/07/03 09:00:39;;;;;;;;;;;;;;;30.16;34.37;101545.59;4966292;29;19934;-86
2021/07/03 09:03:14;;;;;;;;;;;;;;;30.40;34.69;101546.50;4964491;29;19918;-87
2021/07/03 09:05:42;;;;;;;;;;;;;;;30.21;34.94;101545.94;4965619;29;20001;-87
2021/07/03 09:08:10;;;;;;;;;;;;;;;29.92;34.50;101537.41;4968706;28;19969;-87
2021/07/03 09:10:36;;;;;;;;;;;;;;;29.68;35.11;101539.25;4968946;29;19981;-92
2021/07/03 09:13:11;;;;;;;;;;;;;;;29.49;35.53;101535.00;4970685;29;19925;-88
2021/07/03 09:15:41;;;;;;;;;;;;;;;29.05;36.48;101538.25;4952749;29;19923;-90
2021/07/03 09:18:07;;;;;;;;;;;;;;;30.38;34.93;101535.50;4969036;29;19922;-88
2021/07/03 09:20:32;;;;;;;;;;;;;;;31.05;33.80;101531.06;4969015;28;19927;-88
2021/07/03 09:23:00;;;;;;;;;;;;;;;30.03;34.94;101523.91;4966728;29;20004;-88
2021/07/03 09:25:28;;;;;;;;;;;;;;;31.02;33.40;101534.22;4967380;29;19919;-89
2021/07/03 09:27:54;;;;;;;;;;;;;;;30.94;33.56;101525.91;4967757;28;19929;-89
2021/07/03 09:30:26;;;;;;;;;;;;;;;31.08;33.23;101527.88;4967157;29;19974;-90
2021/07/03 09:32:54;;;;;;;;;;;;;;;31.17;33.48;101531.44;4967135;29;19995;-89
2021/07/03 09:35:21;;;;;;;;;;;;;;;30.95;33.41;101536.03;4966632;29;19950;-90
2021/07/03 09:37:48;;;;;;;;;;;;;;;31.75;32.27;101540.00;4967068;28;19934;-90
2021/07/03 09:40:16;;;;;;;;;;;;;;;32.10;32.37;101529.00;4969300;29;19918;-88
2021/07/03 09:42:42;;;;;;;;;;;;;;;31.18;33.03;101535.13;4968730;29;20048;-90
2021/07/03 09:45:08;;;;;;;;;;;;;;;31.26;32.84;101535.00;4969151;29;19934;-90
2021/07/03 09:47:34;;;;;;;;;;;;;;;30.51;33.98;101525.63;4966427;29;19923;-91
2021/07/03 09:50:00;;;;;;;;;;;;;;;31.53;33.21;101529.78;4967626;29;19929;-90
2021/07/03 09:52:27;;;;;;;;;;;;;;;31.60;32.68;101530.75;4970650;28;19909;-91
2021/07/03 09:54:54;;;;;;;;;;;;;;;31.39;32.98;101529.59;4972687;29;20008;-91
2021/07/03 09:57:21;;;;;;;;;;;;;;;30.71;34.76;101526.84;4972100;29;19930;-89
2021/07/03 09:59:47;;;;;;;;;;;;;;;31.14;33.41;101533.78;4970333;29;19929;-91
2021/07/03 10:02:13;;;;;;;;;;;;;;;30.08;34.89;101536.44;4972541;28;19918;-89
2021/07/03 10:04:38;;;;;;;;;;;;;;;31.48;32.66;101527.59;4971391;28;20336;-91
2021/07/03 10:07:05;;;;;;;;;;;;;;;31.95;31.99;101533.78;4970965;29;19918;-91
2021/07/03 10:09:30;;;;;;;;;;;;;;;31.09;33.50;101532.41;4970976;29;19926;-89
2021/07/03 10:12:00;;;;;;;;;;;;;;;30.05;35.31;101530.16;4971638;29;20009;-90
2021/07/03 10:14:26;;;;;;;;;;;;;;;29.74;35.42;101524.56;4971994;29;19922;-89
2021/07/03 10:17:04;;;;;;;;;;;;;;;30.01;34.85;101537.19;4970889;29;19961;-90
2021/07/03 10:19:31;;;;;;;;;;;;;;;30.46;34.55;101539.31;4972021;29;19931;-89
2021/07/03 10:22:09;;;;;;;;;;;;;;;29.76;35.43;101533.63;4971610;29;19929;-91
2021/07/03 10:24:40;;;;;;;;;;;;;;;30.60;34.81;101532.03;4973013;28;19919;-91
2021/07/03 10:27:14;;;;;;;;;;;;;;;30.56;34.38;101529.59;4972013;29;19934;-88
2021/07/03 10:29:40;;;;;;;;;;;;;;;30.25;34.76;101523.22;4970846;28;20355;-90
2021/07/03 10:32:05;;;;;;;;;;;;;;;31.19;33.53;101518.16;4972236;29;19929;-90
2021/07/03 10:34:35;;;;;;;;;;;;;;;30.37;34.98;101514.22;4971682;28;19926;-93
2021/07/03 10:37:02;;;;;;;;;;;;;;;29.45;36.10;101508.53;4971489;29;19923;-88
2021/07/03 10:39:31;;;;;;;;;;;;;;;30.50;35.34;101501.59;4971497;29;19938;-88
2021/07/03 10:42:06;;;;;;;;;;;;;;;29.72;36.29;101497.94;4971757;29;19925;-89
2021/07/03 10:44:41;;;;;;;;;;;;;;;29.45;36.57;101502.94;4971877;29;19923;-90
2021/07/03 10:47:08;;;;;;;;;;;;;;;29.94;36.04;101497.13;4973187;29;19919;-90
2021/07/03 10:49:38;;;;;;;;;;;;;;;29.55;36.98;101497.13;4971321;29;19970;-90
2021/07/03 10:52:13;;;;;;;;;;;;;;;30.30;35.86;101488.13;4971199;29;19929;-90
2021/07/03 10:54:42;;;;;;;;;;;;;;;29.95;35.58;101489.59;4973192;28;19918;-88
2021/07/03 10:57:10;;;;;;;;;;;;;;;30.15;35.58;101478.81;4972133;29;19933;-91
2021/07/03 10:59:38;;;;;;;;;;;;;;;30.74;34.81;101476.19;4971214;29;20386;-90
2021/07/03 11:02:10;;;;;;;;;;;;;;;30.67;34.89;101458.47;4970327;29;19945;-91
2021/07/03 11:04:44;;;;;;;;;;;;;;;29.89;36.15;101454.94;4970743;29;19915;-89
2021/07/03 11:07:13;;;;;;;;;;;;;;;31.48;33.16;101445.59;4969384;29;19918;-88
2021/07/03 11:09:39;;;;;;;;;;;;;;;32.02;32.55;101450.72;4971014;28;19950;-90
2021/07/03 11:12:18;;;;;;;;;;;;;;;31.32;33.49;101457.91;4970137;29;19918;-90
2021/07/03 11:14:54;;;;;;;;;;;;;;;32.35;31.96;101452.13;4971041;29;19970;-90
2021/07/03 11:17:20;;;;;;;;;;;;;;;29.77;36.03;101450.81;4970205;29;19954;-90
2021/07/03 11:19:52;;;;;;;;;;;;;;;29.87;35.68;101451.50;4971129;29;19914;-91
2021/07/03 11:22:22;;;;;;;;;;;;;;;30.85;34.03;101441.31;4969931;29;19926;-91
2021/07/03 11:24:51;;;;;;;;;;;;;;;29.39;37.12;101447.94;4968889;28;19922;-90
2021/07/03 11:27:26;;;;;;;;;;;;;;;30.95;34.02;101443.84;4970337;29;19903;-89
2021/07/03 11:29:51;;;;;;;;;;;;;;;30.77;35.08;101440.53;4969331;29;19933;-89
2021/07/03 11:32:16;;;;;;;;;;;;;;;30.67;35.20;101449.22;4969390;29;19970;-89
2021/07/03 11:34:50;;;;;;;;;;;;;;;30.61;34.96;101448.06;4970455;29;19919;-89
2021/07/03 11:37:23;;;;;;;;;;;;;;;29.77;36.08;101451.69;4969204;28;19989;-90
2021/07/03 11:39:53;;;;;;;;;;;;;;;30.94;34.78;101447.69;4969709;29;19919;-92
2021/07/03 11:42:25;;;;;;;;;;;;;;;31.51;34.11;101436.81;4969787;29;19945;-90
2021/07/03 11:44:54;;;;;;;;;;;;;;;31.24;34.14;101442.09;4970809;29;20379;-90
2021/07/03 11:47:19;;;;;;;;;;;;;;;31.48;33.98;101426.91;4970578;28;19965;-89
2021/07/03 11:49:46;;;;;;;;;;;;;;;30.46;35.93;101434.06;4970483;29;19919;-90
2021/07/03 11:52:11;;;;;;;;;;;;;;;30.09;36.85;101443.28;4970822;28;19981;-90
2021/07/03 11:54:36;;;;;;;;;;;;;;;30.69;35.96;101433.97;4968685;29;19923;-90
2021/07/03 11:57:05;;;;;;;;;;;;;;;30.77;36.05;101423.78;4986927;23;20022;-86
2021/07/03 11:59:31;;;;;;;;;;;;;;;30.49;36.36;101424.44;4977074;28;19933;-84
2021/07/03 12:01:56;;;;;;;;;;;;;;;30.18;37.27;101431.88;4975553;28;19918;-86
2021/07/03 12:04:22;;;;;;;;;;;;;;;30.90;35.51;101423.97;4974783;28;19981;-85
2021/07/03 12:06:56;;;;;;;;;;;;;;;30.03;37.38;101420.66;4991216;28;19918;-86
2021/07/03 12:09:22;;;;;;;;;;;;;;;30.17;38.10;101426.47;4991236;28;20298;-86
2021/07/03 12:11:48;;;;;;;;;;;;;;;31.87;35.23;101417.25;4992122;28;19976;-85
2021/07/03 12:14:15;;;;;;;;;;;;;;;30.86;34.93;101417.91;4992846;28;19919;-85
2021/07/03 12:16:41;;;;;;;;;;;;;;;31.12;35.02;101410.09;4993363;28;20016;-85
2021/07/03 12:19:06;;;;;;;;;;;;;;;30.10;36.47;101428.28;4977944;28;20355;-85
2021/07/03 12:21:34;;;;;;;;;;;;;;;30.28;35.84;101408.41;4992694;28;19925;-87
2021/07/03 12:23:59;;;;;;;;;;;;;;;31.66;34.08;101404.13;4991558;28;20364;-86
2021/07/03 12:26:26;;;;;;;;;;;;;;;31.23;34.52;101398.44;4975881;28;20036;-86
2021/07/03 12:28:59;;;;;;;;;;;;;;;31.27;35.25;101402.56;4991058;28;19961;-86
2021/07/03 12:31:25;;;;;;;;;;;;;;;32.02;34.10;101391.94;4978365;28;19922;-87
2021/07/03 12:34:01;;;;;;;;;;;;;;;31.40;34.30;101397.13;4980347;28;19925;-87
2021/07/03 12:36:26;;;;;;;;;;;;;;;30.97;35.21;101398.94;4979676;28;19964;-83
2021/07/03 12:39:01;;;;;;;;;;;;;;;31.89;33.76;101387.13;4975113;28;19918;-81
2021/07/03 12:41:26;;;;;;;;;;;;;;;32.20;33.18;101385.88;4973375;28;20276;-80
2021/07/03 12:43:53;;;;;;;;;;;;;;;31.38;34.41;101392.78;4973305;28;19918;-83